createdAt,value
2022-09-13T00:00:38.675Z,4.70
2022-09-13T00:03:05.309Z,4.40
2022-09-13T00:05:31.868Z,4.00
2022-09-13T00:07:58.447Z,4.10
2022-09-13T00:10:25.266Z,4.70
2022-09-13T00:12:51.892Z,4.32
2022-09-13T00:15:18.651Z,6.28
2022-09-13T00:17:45.282Z,7.03
2022-09-13T00:20:11.879Z,6.50
2022-09-13T00:22:38.515Z,5.00
2022-09-13T00:25:05.817Z,4.28
2022-09-13T00:27:33.414Z,4.60
2022-09-13T00:30:00.117Z,4.55
2022-09-13T00:32:26.928Z,4.32
2022-09-13T00:34:53.508Z,4.63
2022-09-13T00:37:20.131Z,4.38
2022-09-13T00:39:49.803Z,4.43
2022-09-13T00:42:16.782Z,4.60
2022-09-13T00:45:07.730Z,5.30
2022-09-13T00:47:40.606Z,4.80
2022-09-13T00:50:33.557Z,3.95
2022-09-13T00:53:11.626Z,4.68
2022-09-13T00:55:46.602Z,4.93
2022-09-13T01:00:40.581Z,4.50
2022-09-13T01:03:08.275Z,8.30
2022-09-13T01:05:43.077Z,6.78
2022-09-13T01:08:12.767Z,9.73
2022-09-13T01:10:41.797Z,13.82
2022-09-13T01:13:18.184Z,8.10
2022-09-13T01:15:44.907Z,8.95
2022-09-13T01:18:11.572Z,6.30
2022-09-13T01:20:57.360Z,14.00
2022-09-13T01:24:10.218Z,12.57
2022-09-13T01:26:52.761Z,9.27
2022-09-13T01:29:41.156Z,9.57
2022-09-13T01:32:11.893Z,10.75
2022-09-13T01:34:57.030Z,7.05
2022-09-13T01:37:44.815Z,7.28
2022-09-13T01:40:57.547Z,8.55
2022-09-13T01:43:36.094Z,8.98
2022-09-13T01:46:06.878Z,7.03
2022-09-13T01:49:13.224Z,7.65
2022-09-13T01:51:43.015Z,5.70
2022-09-13T01:54:18.040Z,6.93
2022-09-13T01:59:49.432Z,7.25
2022-09-13T02:02:23.861Z,8.25
2022-09-13T02:04:54.166Z,6.50
2022-09-13T02:07:24.476Z,6.20
2022-09-13T02:10:05.054Z,7.35
2022-09-13T02:12:32.022Z,5.43
2022-09-13T02:15:08.947Z,4.95
2022-09-13T02:17:39.638Z,5.50
2022-09-13T02:20:09.322Z,5.20
2022-09-13T02:22:39.050Z,9.70
2022-09-13T02:25:09.349Z,5.25
2022-09-13T02:27:36.116Z,4.88
2022-09-13T02:30:07.943Z,5.68
2022-09-13T02:32:42.989Z,6.47
2022-09-13T02:37:42.468Z,4.93
2022-09-13T02:40:12.994Z,7.45
2022-09-13T02:42:43.790Z,5.40
2022-09-13T02:45:10.835Z,5.55
2022-09-13T02:47:49.553Z,6.07
2022-09-13T02:50:34.299Z,6.80
2022-09-13T02:53:15.227Z,6.35
2022-09-13T02:55:53.922Z,5.40
2022-09-13T02:58:27.301Z,5.80
2022-09-13T03:00:54.173Z,5.97
2022-09-13T03:03:20.981Z,6.50
2022-09-13T03:05:49.681Z,5.78
2022-09-13T03:08:16.789Z,6.20
2022-09-13T03:11:09.190Z,6.60
2022-09-13T03:13:46.820Z,5.40
2022-09-13T03:16:23.504Z,7.28
2022-09-13T03:19:32.151Z,11.32
2022-09-13T03:22:14.071Z,13.45
2022-09-13T03:24:50.533Z,7.68
2022-09-13T03:27:29.269Z,7.82
2022-09-13T03:30:09.219Z,7.78
2022-09-13T03:32:44.816Z,6.40
2022-09-13T03:35:18.760Z,10.27
2022-09-13T03:37:57.280Z,5.43
2022-09-13T03:40:32.995Z,4.93
2022-09-13T03:43:08.355Z,5.10
2022-09-13T03:45:37.241Z,5.07
2022-09-13T03:48:04.149Z,4.03
2022-09-13T03:50:30.734Z,4.03
2022-09-13T03:53:02.876Z,3.60
2022-09-13T03:55:30.330Z,3.53
2022-09-13T03:57:56.912Z,3.20
2022-09-13T04:00:23.935Z,4.15
2022-09-13T04:02:50.951Z,3.85
2022-09-13T04:05:17.940Z,3.70
2022-09-13T04:07:44.606Z,3.67
2022-09-13T04:10:13.775Z,4.38
2022-09-13T04:12:41.397Z,3.78
2022-09-13T04:15:08.908Z,3.97
2022-09-13T04:17:36.336Z,4.32
2022-09-13T04:20:03.295Z,4.35
2022-09-13T04:22:29.849Z,3.83
2022-09-13T04:25:01.508Z,5.07
2022-09-13T04:27:29.014Z,5.30
2022-09-13T04:29:55.607Z,5.30
2022-09-13T04:32:22.257Z,7.63
2022-09-13T04:34:49.056Z,5.28
2022-09-13T04:37:15.687Z,8.80
2022-09-13T04:39:42.717Z,7.20
2022-09-13T04:42:10.362Z,5.05
2022-09-13T04:44:36.953Z,4.43
2022-09-13T04:47:03.840Z,4.95
2022-09-13T04:49:30.390Z,5.43
2022-09-13T04:51:57.391Z,4.90
2022-09-13T04:54:24.397Z,4.65
2022-09-13T04:56:50.962Z,4.32
2022-09-13T04:59:17.927Z,4.28
2022-09-13T05:01:44.783Z,4.20
2022-09-13T05:04:11.458Z,4.30
2022-09-13T05:06:38.319Z,4.13
2022-09-13T05:09:05.534Z,4.15
2022-09-13T05:11:32.112Z,3.95
2022-09-13T05:13:59.964Z,4.65
2022-09-13T05:16:30.616Z,4.32
2022-09-13T05:18:57.386Z,4.00
2022-09-13T05:21:24.265Z,3.95
2022-09-13T05:23:54.564Z,3.50
2022-09-13T05:26:25.644Z,3.70
2022-09-13T05:28:52.273Z,3.33
2022-09-13T05:31:18.818Z,3.28
2022-09-13T05:33:46.774Z,3.58
2022-09-13T05:36:13.338Z,3.40
2022-09-13T05:38:40.014Z,4.05
2022-09-13T05:41:06.687Z,3.58
2022-09-13T05:43:35.279Z,3.35
2022-09-13T05:46:10.280Z,4.00
2022-09-13T05:51:12.299Z,3.78
2022-09-13T05:53:42.278Z,3.17
2022-09-13T05:56:13.334Z,4.18
2022-09-13T05:58:44.292Z,4.10
2022-09-13T06:01:11.561Z,8.38
2022-09-13T06:03:38.243Z,10.32
2022-09-13T06:06:05.097Z,3.95
2022-09-13T06:08:32.438Z,6.68
2022-09-13T06:11:06.547Z,4.40
2022-09-13T06:13:33.205Z,5.47
2022-09-13T06:16:00.815Z,4.53
2022-09-13T06:18:27.507Z,4.32
2022-09-13T06:21:01.940Z,6.38
2022-09-13T06:23:29.048Z,4.45
2022-09-13T06:26:09.978Z,3.72
2022-09-13T06:28:37.547Z,4.72
2022-09-13T06:31:11.637Z,5.22
2022-09-13T06:33:39.513Z,6.63
2022-09-13T06:36:10.762Z,4.95
2022-09-13T06:38:37.402Z,5.57
2022-09-13T06:41:08.357Z,4.53
2022-09-13T06:43:34.979Z,5.28
2022-09-13T06:46:15.730Z,5.00
2022-09-13T06:48:43.470Z,4.75
2022-09-13T06:51:14.410Z,3.33
2022-09-13T06:53:41.382Z,3.50
2022-09-13T06:56:13.303Z,4.88
2022-09-13T06:58:40.764Z,3.53
2022-09-13T07:01:12.046Z,3.47
2022-09-13T07:03:39.689Z,4.38
2022-09-13T07:06:17.239Z,3.80
2022-09-13T07:08:47.395Z,4.20
2022-09-13T07:11:15.647Z,3.75
2022-09-13T07:13:42.209Z,3.38
2022-09-13T07:16:10.445Z,3.45
2022-09-13T07:18:37.481Z,2.90
2022-09-13T07:21:06.131Z,3.10
2022-09-13T07:23:33.570Z,3.50
2022-09-13T07:26:05.593Z,3.00
2022-09-13T07:28:37.158Z,3.15
2022-09-13T07:31:08.467Z,3.40
2022-09-13T07:33:35.140Z,3.58
2022-09-13T07:36:06.276Z,3.40
2022-09-13T07:38:35.866Z,3.08
2022-09-13T07:41:03.106Z,2.95
2022-09-13T07:43:29.711Z,3.15
2022-09-13T07:45:58.112Z,2.75
2022-09-13T07:48:25.212Z,2.22
2022-09-13T07:51:07.998Z,2.53
2022-09-13T07:53:35.188Z,2.35
2022-09-13T07:56:03.544Z,2.28
2022-09-13T07:58:30.357Z,2.30
2022-09-13T08:01:21.797Z,2.17
2022-09-13T08:03:52.368Z,2.22
2022-09-13T08:06:18.939Z,2.50
2022-09-13T08:08:45.586Z,2.75
2022-09-13T08:11:16.303Z,2.50
2022-09-13T08:13:42.927Z,2.90
2022-09-13T08:16:09.586Z,2.65
2022-09-13T08:18:36.172Z,2.83
2022-09-13T08:21:02.757Z,3.33
2022-09-13T08:23:29.710Z,2.92
2022-09-13T08:26:00.795Z,3.00
2022-09-13T08:28:27.866Z,2.70
2022-09-13T08:30:54.525Z,2.42
2022-09-13T08:33:21.271Z,2.60
2022-09-13T08:35:52.360Z,2.55
2022-09-13T08:38:19.547Z,2.28
2022-09-13T08:40:50.206Z,2.33
2022-09-13T08:43:47.840Z,2.60
2022-09-13T08:46:26.396Z,2.33
2022-09-13T08:48:55.460Z,2.42
2022-09-13T08:51:31.260Z,2.40
2022-09-13T08:53:58.141Z,2.47
2022-09-13T08:56:49.541Z,2.70
2022-09-13T08:59:37.363Z,2.45
2022-09-13T09:02:17.032Z,2.35
2022-09-13T09:04:58.696Z,2.20
2022-09-13T09:07:27.795Z,2.60
2022-09-13T09:09:56.715Z,2.40
2022-09-13T09:12:41.655Z,2.40
2022-09-13T09:15:25.719Z,2.20
2022-09-13T09:18:10.683Z,2.50
2022-09-13T09:20:40.406Z,2.30
2022-09-13T09:23:21.373Z,2.60
2022-09-13T09:25:49.047Z,2.38
2022-09-13T09:28:17.096Z,2.60
2022-09-13T09:31:01.397Z,2.85
2022-09-13T09:33:54.881Z,2.50
2022-09-13T09:36:43.394Z,2.40
2022-09-13T09:39:16.416Z,2.72
2022-09-13T09:41:44.142Z,2.90
2022-09-13T09:44:14.798Z,2.65
2022-09-13T09:46:41.700Z,2.60
2022-09-13T09:49:36.114Z,2.83
2022-09-13T09:52:06.594Z,2.30
2022-09-13T09:54:34.783Z,2.65
2022-09-13T09:57:01.372Z,2.35
2022-09-13T09:59:32.710Z,2.70
2022-09-13T10:02:00.359Z,2.42
2022-09-13T10:04:27.007Z,2.25
2022-09-13T10:07:15.983Z,2.30
2022-09-13T10:09:48.674Z,2.60
2022-09-13T10:12:15.260Z,2.38
2022-09-13T10:14:43.084Z,2.33
2022-09-13T10:17:26.795Z,2.20
2022-09-13T10:20:20.321Z,2.17
2022-09-13T10:22:47.467Z,2.30
2022-09-13T10:25:27.189Z,2.22
2022-09-13T10:27:57.347Z,2.22
2022-09-13T10:30:38.497Z,2.30
2022-09-13T10:33:05.235Z,2.42
2022-09-13T10:35:31.859Z,2.13
2022-09-13T10:37:58.436Z,2.40
2022-09-13T10:40:34.007Z,2.10
2022-09-13T10:43:03.734Z,2.40
2022-09-13T10:45:31.664Z,2.15
2022-09-13T10:48:03.959Z,2.30
2022-09-13T10:50:35.733Z,2.35
2022-09-13T10:53:03.248Z,2.45
2022-09-13T10:55:37.183Z,2.58
2022-09-13T10:58:07.927Z,2.40
2022-09-13T11:00:54.401Z,2.28
2022-09-13T11:03:33.704Z,2.65
2022-09-13T11:06:13.349Z,2.15
2022-09-13T11:09:05.225Z,2.40
2022-09-13T11:11:37.256Z,2.47
2022-09-13T11:14:18.971Z,2.20
2022-09-13T11:17:23.963Z,2.05
2022-09-13T11:19:56.878Z,2.40
2022-09-13T11:22:26.688Z,2.10
2022-09-13T11:25:09.869Z,2.38
2022-09-13T11:28:17.998Z,2.83
2022-09-13T11:31:13.934Z,2.80
2022-09-13T11:33:49.825Z,2.33
2022-09-13T11:36:29.897Z,2.17
2022-09-13T11:39:21.193Z,2.50
2022-09-13T11:42:09.330Z,2.40
2022-09-13T11:45:08.801Z,3.05
2022-09-13T11:47:48.376Z,2.08
2022-09-13T11:50:40.423Z,2.45
2022-09-13T11:53:44.970Z,2.35
2022-09-13T11:56:14.334Z,2.60
2022-09-13T11:59:22.409Z,2.38
2022-09-13T12:01:58.808Z,2.55
2022-09-13T12:04:33.771Z,2.58
2022-09-13T12:07:03.018Z,2.45
2022-09-13T12:09:32.652Z,3.00
2022-09-13T12:12:07.211Z,2.30
2022-09-13T12:14:52.319Z,2.53
2022-09-13T12:20:02.418Z,2.53
2022-09-13T12:22:32.749Z,2.45
2022-09-13T12:25:03.762Z,2.13
2022-09-13T12:27:42.227Z,2.40
2022-09-13T12:30:18.922Z,2.25
2022-09-13T12:32:46.378Z,2.60
2022-09-13T12:35:20.195Z,2.28
2022-09-13T12:38:05.017Z,2.30
2022-09-13T12:40:45.691Z,2.20
2022-09-13T12:43:27.316Z,2.30
2022-09-13T12:46:24.440Z,2.40
2022-09-13T12:49:31.278Z,2.13
2022-09-13T12:52:10.558Z,2.40
2022-09-13T12:54:49.364Z,2.30
2022-09-13T12:57:28.255Z,2.30
2022-09-13T12:59:57.799Z,2.60
2022-09-13T13:02:36.366Z,2.10
2022-09-13T13:05:27.572Z,2.40
2022-09-13T13:07:56.964Z,2.30
2022-09-13T13:10:34.273Z,2.30
2022-09-13T13:13:24.915Z,2.65
2022-09-13T13:15:51.787Z,2.28
2022-09-13T13:18:28.441Z,2.25
2022-09-13T13:20:54.890Z,2.33
2022-09-13T13:23:21.883Z,2.10
2022-09-13T13:26:01.250Z,2.28
2022-09-13T13:28:43.295Z,2.20
2022-09-13T13:31:11.021Z,2.40
2022-09-13T13:33:48.830Z,2.70
2022-09-13T13:36:33.629Z,2.20
2022-09-13T13:39:03.649Z,2.55
2022-09-13T13:41:33.563Z,2.40
2022-09-13T13:44:00.878Z,2.40
2022-09-13T13:46:29.759Z,2.40
2022-09-13T13:48:56.535Z,2.30
2022-09-13T13:51:24.591Z,2.22
2022-09-13T13:54:03.550Z,2.28
2022-09-13T13:56:35.691Z,2.40
2022-09-13T13:59:31.651Z,2.53
2022-09-13T14:02:02.048Z,2.20
2022-09-13T14:04:57.581Z,2.10
2022-09-13T14:07:38.729Z,2.08
2022-09-13T14:10:28.025Z,2.30
2022-09-13T14:13:05.843Z,2.30
2022-09-13T14:15:38.424Z,2.55
2022-09-13T14:18:19.966Z,2.05
2022-09-13T14:21:18.888Z,2.28
2022-09-13T14:23:45.476Z,2.22
2022-09-13T14:26:12.085Z,2.45
2022-09-13T14:28:39.083Z,2.03
2022-09-13T14:31:05.957Z,2.35
2022-09-13T14:33:35.392Z,2.45
2022-09-13T14:36:07.480Z,2.40
2022-09-13T14:38:35.906Z,2.28
2022-09-13T14:41:17.180Z,2.20
2022-09-13T14:43:44.130Z,2.60
2022-09-13T14:46:20.993Z,2.22
2022-09-13T14:48:55.598Z,2.45
2022-09-13T14:51:28.251Z,2.40
2022-09-13T14:54:09.697Z,2.03
2022-09-13T14:56:40.452Z,2.35
2022-09-13T14:59:13.181Z,2.17
2022-09-13T15:01:39.771Z,2.00
2022-09-13T15:04:07.332Z,2.60
2022-09-13T15:06:38.392Z,2.28
2022-09-13T15:09:11.192Z,2.50
2022-09-13T15:11:40.043Z,2.40
2022-09-13T15:14:26.221Z,2.22
2022-09-13T15:17:08.080Z,2.55
2022-09-13T15:19:51.394Z,2.20
2022-09-13T15:22:23.329Z,2.72
2022-09-13T15:24:54.875Z,2.20
2022-09-13T15:27:22.919Z,2.25
2022-09-13T15:29:50.938Z,2.38
2022-09-13T15:32:43.951Z,2.50
2022-09-13T15:35:43.855Z,2.28
2022-09-13T15:38:30.954Z,2.42
2022-09-13T15:41:03.476Z,2.60
2022-09-13T15:43:31.010Z,2.20
2022-09-13T15:45:58.856Z,2.17
2022-09-13T15:48:30.377Z,2.35
2022-09-13T15:51:11.378Z,2.10
2022-09-13T15:53:42.794Z,2.70
2022-09-13T15:56:12.191Z,2.42
2022-09-13T15:58:38.806Z,2.40
2022-09-13T16:01:05.665Z,2.70
2022-09-13T16:03:32.267Z,2.22
2022-09-13T16:05:59.384Z,2.47
2022-09-13T16:08:25.947Z,2.50
2022-09-13T16:10:52.546Z,2.05
2022-09-13T16:13:19.187Z,2.47
2022-09-13T16:15:45.969Z,2.25
2022-09-13T16:18:13.732Z,2.33
2022-09-13T16:20:40.291Z,2.70
2022-09-13T16:23:07.013Z,2.28
2022-09-13T16:25:34.947Z,2.22
2022-09-13T16:28:02.511Z,2.40
2022-09-13T16:30:30.612Z,2.30
2022-09-13T16:32:57.541Z,3.13
2022-09-13T16:35:28.300Z,2.53
2022-09-13T16:37:54.985Z,2.70
2022-09-13T16:40:21.747Z,2.47
2022-09-13T16:42:48.370Z,2.80
2022-09-13T16:45:15.100Z,2.70
2022-09-13T16:47:42.365Z,2.45
2022-09-13T16:50:09.332Z,2.58
2022-09-13T16:52:36.021Z,2.90
2022-09-13T16:55:02.894Z,2.72
2022-09-13T16:57:29.965Z,2.55
2022-09-13T16:59:58.535Z,2.92
2022-09-13T17:02:26.166Z,2.63
2022-09-13T17:04:53.054Z,2.70
2022-09-13T17:07:19.730Z,2.95
2022-09-13T17:09:46.482Z,3.42
2022-09-13T17:12:13.633Z,3.13
2022-09-13T17:14:42.690Z,3.42
2022-09-13T17:17:09.401Z,2.70
2022-09-13T17:19:36.019Z,3.50
2022-09-13T17:22:03.588Z,2.97
2022-09-13T17:24:33.443Z,2.90
2022-09-13T17:27:00.078Z,2.80
2022-09-13T17:29:30.940Z,2.72
2022-09-13T17:31:58.614Z,2.90
2022-09-13T17:34:25.265Z,2.70
2022-09-13T17:36:52.402Z,2.65
2022-09-13T17:39:19.406Z,3.10
2022-09-13T17:41:46.378Z,3.92
2022-09-13T17:44:12.944Z,3.00
2022-09-13T17:46:39.599Z,2.75
2022-09-13T17:49:06.235Z,2.30
2022-09-13T17:51:33.174Z,2.53
2022-09-13T17:54:01.373Z,3.10
2022-09-13T17:56:30.390Z,2.35
2022-09-13T17:59:18.293Z,3.15
2022-09-13T18:01:49.689Z,2.75
2022-09-13T18:04:17.293Z,3.00
2022-09-13T18:06:45.230Z,3.08
2022-09-13T18:09:12.550Z,3.00
2022-09-13T18:11:39.209Z,3.13
2022-09-13T18:14:06.015Z,2.85
2022-09-13T18:16:32.836Z,2.75
2022-09-13T18:19:00.023Z,3.13
2022-09-13T18:21:27.403Z,2.92
2022-09-13T18:23:58.139Z,3.00
2022-09-13T18:26:25.775Z,3.28
2022-09-13T18:28:57.082Z,3.55
2022-09-13T18:31:24.363Z,3.45
2022-09-13T18:33:55.822Z,3.17
2022-09-13T18:36:22.854Z,2.92
2022-09-13T18:38:49.621Z,2.47
2022-09-13T18:41:20.823Z,3.08
2022-09-13T18:43:52.969Z,3.60
2022-09-13T18:46:23.857Z,3.33
2022-09-13T18:48:52.913Z,2.78
2022-09-13T18:51:21.259Z,2.75
2022-09-13T18:53:47.939Z,3.30
2022-09-13T18:56:16.910Z,3.33
2022-09-13T18:58:43.828Z,2.90
2022-09-13T19:01:13.040Z,3.30
2022-09-13T19:03:40.169Z,2.90
2022-09-13T19:06:13.881Z,3.42
2022-09-13T19:08:41.161Z,3.30
2022-09-13T19:11:19.177Z,3.38
2022-09-13T19:13:54.482Z,2.90
2022-09-13T19:16:21.204Z,3.17
2022-09-13T19:18:51.379Z,3.38
2022-09-13T19:21:22.383Z,3.22
2022-09-13T19:23:59.400Z,3.05
2022-09-13T19:26:28.232Z,2.97
2022-09-13T19:29:04.448Z,3.28
2022-09-13T19:31:31.213Z,2.80
2022-09-13T19:33:58.077Z,2.90
2022-09-13T19:36:27.319Z,2.92
2022-09-13T19:38:57.147Z,3.40
2022-09-13T19:41:25.588Z,3.05
2022-09-13T19:43:56.235Z,2.83
2022-09-13T19:46:24.469Z,3.78
2022-09-13T19:48:51.753Z,3.25
2022-09-13T19:51:20.054Z,3.55
2022-09-13T19:53:56.892Z,3.50
2022-09-13T19:56:27.923Z,3.45
2022-09-13T19:58:54.614Z,3.25
2022-09-13T20:01:23.494Z,3.15
2022-09-13T20:03:52.549Z,3.20
2022-09-13T20:06:19.398Z,2.63
2022-09-13T20:08:46.136Z,3.25
2022-09-13T20:11:14.253Z,3.33
2022-09-13T20:13:40.825Z,3.15
2022-09-13T20:16:24.286Z,3.10
2022-09-13T20:18:51.171Z,2.85
2022-09-13T20:21:18.326Z,2.90
2022-09-13T20:23:45.150Z,3.40
2022-09-13T20:26:22.481Z,3.22
2022-09-13T20:28:50.254Z,3.25
2022-09-13T20:31:16.958Z,3.10
2022-09-13T20:33:43.594Z,3.10
2022-09-13T20:36:11.462Z,2.80
2022-09-13T20:38:38.446Z,3.28
2022-09-13T20:41:12.119Z,3.40
2022-09-13T20:43:38.887Z,2.58
2022-09-13T20:46:06.170Z,2.70
2022-09-13T20:48:33.363Z,3.20
2022-09-13T20:51:08.866Z,2.90
2022-09-13T20:53:35.580Z,3.03
2022-09-13T20:56:06.595Z,3.28
2022-09-13T20:58:33.201Z,2.78
2022-09-13T21:01:11.416Z,2.75
2022-09-13T21:03:38.973Z,2.90
2022-09-13T21:06:06.449Z,3.17
2022-09-13T21:08:42.125Z,3.97
2022-09-13T21:11:13.856Z,3.17
2022-09-13T21:13:56.092Z,3.55
2022-09-13T21:16:24.655Z,3.45
2022-09-13T21:18:51.408Z,3.25
2022-09-13T21:21:22.458Z,3.35
2022-09-13T21:23:49.258Z,3.22
2022-09-13T21:26:18.322Z,3.22
2022-09-13T21:28:45.001Z,3.10
2022-09-13T21:31:16.002Z,2.95
2022-09-13T21:33:45.211Z,2.72
2022-09-13T21:36:12.210Z,3.70
2022-09-13T21:38:39.147Z,3.65
2022-09-13T21:41:07.127Z,2.92
2022-09-13T21:43:34.175Z,2.95
2022-09-13T21:46:05.713Z,3.35
2022-09-13T21:48:33.271Z,3.58
2022-09-13T21:51:17.548Z,3.65
2022-09-13T21:53:44.675Z,3.13
2022-09-13T21:56:13.785Z,3.42
2022-09-13T21:58:40.552Z,3.00
2022-09-13T22:01:13.815Z,2.90
2022-09-13T22:03:42.390Z,2.85
2022-09-13T22:06:09.678Z,2.83
2022-09-13T22:08:37.652Z,2.95
2022-09-13T22:11:05.721Z,2.72
2022-09-13T22:13:33.819Z,2.97
2022-09-13T22:16:08.175Z,3.67
2022-09-13T22:18:34.932Z,2.70
2022-09-13T22:21:11.044Z,3.33
2022-09-13T22:23:37.727Z,2.70
2022-09-13T22:26:08.154Z,3.60
2022-09-13T22:28:35.079Z,3.25
2022-09-13T22:31:12.203Z,3.25
2022-09-13T22:33:39.328Z,3.75
2022-09-13T22:36:07.790Z,3.10
2022-09-13T22:38:34.847Z,3.00
2022-09-13T22:41:03.684Z,3.22
2022-09-13T22:43:30.551Z,3.38
2022-09-13T22:46:05.551Z,3.40
2022-09-13T22:48:32.251Z,2.83
2022-09-13T22:50:58.884Z,3.60
2022-09-13T22:53:26.789Z,3.35
2022-09-13T22:55:53.454Z,3.00
2022-09-13T22:58:20.107Z,2.95
2022-09-13T23:00:46.711Z,3.17
2022-09-13T23:03:13.389Z,3.42
2022-09-13T23:05:40.127Z,4.05
2022-09-13T23:08:07.104Z,3.55
2022-09-13T23:10:33.745Z,3.30
2022-09-13T23:13:00.603Z,3.00
2022-09-13T23:15:27.206Z,3.65
2022-09-13T23:17:53.871Z,3.22
2022-09-13T23:20:20.471Z,3.35
2022-09-13T23:22:47.240Z,2.90
2022-09-13T23:25:13.797Z,3.10
2022-09-13T23:27:40.344Z,2.95
2022-09-13T23:30:07.363Z,3.40
2022-09-13T23:32:33.903Z,2.80
2022-09-13T23:35:00.461Z,2.92
2022-09-13T23:37:27.025Z,3.53
2022-09-13T23:39:53.844Z,3.20
2022-09-13T23:42:20.420Z,3.72
2022-09-13T23:44:46.998Z,3.33
2022-09-13T23:47:13.611Z,3.60
2022-09-13T23:49:44.268Z,3.40
2022-09-13T23:52:10.883Z,4.05
2022-09-13T23:54:37.458Z,3.45
2022-09-13T23:57:04.077Z,3.45
2022-09-13T23:59:30.699Z,3.85
